KIAH

George Bush Intercontinental / Houston Airport

Houston, Texas, USA
METAR KIAH 132353Z 28006KT 10SM SCT065 BKN110 20/12 A2972 RMK AO2 SLP065 T02000117 10239 20200 53012
Observed Flight Rules
Dec-13 @ 23:53 UTC (52 minutes ago) Visual Flight Rules
Wind Visibility Clouds
280° at 6 knots 10 miles
  • Scattered at 6,500' AGL
  • Broken at 11,000' AGL
Temperatures Readings
Current 20°C / 68°F
Dewpoint 12°C / 54°F
Humidity 60%
Altimeter 29.72" Hg
Pressure 1006.5 hPa
Elevation 36
METAR KIAH 132353Z 28006KT 10SM SCT065 BKN110 20/12 A2972 RMK AO2 SLP065 T02000117 10239 20200 53012
Observed Flight Rules
Dec-13 @ 23:53 UTC
(52 minutes ago)
VFR
Wind Visibility
280° at 6 knots 10 miles
Clouds
  • Scattered at 6,500' AGL
  • Broken at 11,000' AGL
Temperature Dewpoint
20°C / 68°F 12°C / 54°F
Humidity Altimeter Pressure
60% 29.72" Hg 1006.5 hPa